Time;durP1;ratioP1;P1;durP2;ratioP2;P2;SDS_P1;SDS_P2;PMS_P1;PMS_P2;Temp;Humidity;BMP_temperature;BMP_pressure;BME280_temperature;BME280_humidity;BME280_pressure;Samples;Min_cycle;Max_cycle;Signal;HPM_P1;HPM_P2
2021/06/11 00:00:20;;;;;;;1.67;1.00;;;23.10;81.60;;;;;;5112102;28;20030;-80
2021/06/11 00:02:46;;;;;;;1.83;0.60;;;23.20;81.70;;;;;;5111088;28;20062;-82
2021/06/11 00:05:12;;;;;;;1.33;0.80;;;23.10;81.70;;;;;;5111839;28;20059;-82
2021/06/11 00:07:37;;;;;;;1.33;0.60;;;23.10;81.80;;;;;;5112238;28;20024;-79
2021/06/11 00:10:05;;;;;;;2.75;0.82;;;23.10;81.90;;;;;;5112278;28;20023;-80
2021/06/11 00:12:31;;;;;;;1.35;0.80;;;23.10;82.20;;;;;;5111984;28;20036;-78
2021/06/11 00:14:58;;;;;;;1.50;0.90;;;23.10;82.40;;;;;;5112489;28;20020;-80
2021/06/11 00:17:24;;;;;;;1.40;0.90;;;23.10;82.60;;;;;;5112084;28;20035;-82
2021/06/11 00:19:50;;;;;;;1.55;0.93;;;23.10;83.40;;;;;;5111871;28;20015;-78
2021/06/11 00:22:15;;;;;;;2.30;1.00;;;23.10;84.40;;;;;;5112004;28;20032;-79
2021/06/11 00:24:41;;;;;;;1.17;0.90;;;23.10;84.00;;;;;;5111724;28;20490;-79
2021/06/11 00:27:07;;;;;;;1.52;0.63;;;23.10;84.30;;;;;;5110705;28;20487;-77
2021/06/11 00:29:33;;;;;;;2.03;0.82;;;23.10;84.60;;;;;;5111663;28;20028;-78
2021/06/11 00:31:58;;;;;;;2.60;0.90;;;23.10;84.50;;;;;;5111713;28;20034;-78
2021/06/11 00:34:24;;;;;;;1.02;0.70;;;23.10;84.60;;;;;;5110697;28;20078;-79
2021/06/11 00:36:49;;;;;;;1.67;0.80;;;23.10;84.60;;;;;;5111630;28;20026;-79
2021/06/11 00:39:15;;;;;;;2.22;0.80;;;23.10;85.40;;;;;;5112004;28;20027;-84
2021/06/11 00:41:41;;;;;;;1.20;0.80;;;23.10;84.50;;;;;;5110859;28;20023;-80
2021/06/11 00:44:06;;;;;;;1.25;0.68;;;23.10;84.60;;;;;;5111632;28;20070;-83
2021/06/11 00:46:32;;;;;;;1.27;0.70;;;23.10;84.30;;;;;;5111510;28;20035;-83
2021/06/11 00:48:58;;;;;;;1.05;0.80;;;23.10;84.20;;;;;;5111883;28;20020;-83
2021/06/11 00:51:24;;;;;;;0.85;0.63;;;23.10;84.20;;;;;;5111579;28;20026;-81
2021/06/11 00:53:50;;;;;;;1.35;0.80;;;23.10;84.10;;;;;;5111317;28;20032;-84
2021/06/11 00:56:16;;;;;;;0.93;0.73;;;23.10;84.10;;;;;;5111709;28;20020;-84
2021/06/11 00:58:42;;;;;;;1.17;0.80;;;23.10;83.90;;;;;;5111312;28;20027;-80
2021/06/11 01:01:08;;;;;;;1.55;0.77;;;23.00;83.80;;;;;;5111155;28;20061;-79
2021/06/11 01:03:33;;;;;;;1.20;0.80;;;23.00;83.70;;;;;;5111134;28;20062;-80
2021/06/11 01:05:59;;;;;;;0.70;0.60;;;23.00;83.80;;;;;;5111101;28;20176;-82
2021/06/11 01:08:25;;;;;;;0.95;0.63;;;23.00;83.70;;;;;;5111600;28;20063;-83
2021/06/11 01:10:51;;;;;;;1.33;0.80;;;23.00;83.70;;;;;;5111347;28;20809;-80
2021/06/11 01:13:18;;;;;;;1.40;0.90;;;23.10;83.60;;;;;;5111368;28;20063;-82
2021/06/11 01:15:48;;;;;;;1.25;0.70;;;23.00;83.50;;;;;;5111154;28;20026;-79
2021/06/11 01:18:14;;;;;;;1.08;0.63;;;23.00;83.40;;;;;;5109603;28;20086;-82
2021/06/11 01:20:41;;;;;;;1.83;1.10;;;23.00;83.40;;;;;;5111132;28;20475;-83
2021/06/11 01:23:44;;;;;;;1.30;0.70;;;23.00;83.30;;;;;;5111427;28;20049;-80
2021/06/11 01:26:09;;;;;;;0.80;0.60;;;23.00;83.30;;;;;;5110825;28;20031;-78
2021/06/11 01:28:35;;;;;;;0.90;0.50;;;22.90;83.20;;;;;;5111328;28;20487;-80
2021/06/11 01:31:02;;;;;;;1.00;0.80;;;22.90;83.10;;;;;;5110933;28;20110;-79
2021/06/11 01:33:31;;;;;;;0.80;0.77;;;22.90;83.10;;;;;;5111249;28;20035;-79
2021/06/11 01:36:01;;;;;;;1.02;0.73;;;22.90;83.00;;;;;;5111277;28;20020;-80
2021/06/11 01:38:37;;;;;;;1.95;0.80;;;22.90;82.90;;;;;;5110552;28;20023;-78
2021/06/11 01:41:05;;;;;;;1.23;0.82;;;22.90;82.80;;;;;;5111303;28;20031;-79
2021/06/11 01:43:33;;;;;;;0.90;0.60;;;22.90;82.90;;;;;;5111030;28;20054;-78
2021/06/11 01:45:59;;;;;;;1.25;0.73;;;22.90;82.90;;;;;;5111013;28;20032;-81
2021/06/11 01:48:26;;;;;;;1.20;0.70;;;22.90;83.50;;;;;;5111220;28;20352;-77
2021/06/11 01:50:53;;;;;;;1.52;0.82;;;22.90;82.60;;;;;;5110933;28;20074;-79
2021/06/11 01:53:20;;;;;;;1.15;0.70;;;22.90;82.50;;;;;;5110970;28;20042;-80
2021/06/11 01:55:48;;;;;;;0.70;0.50;;;22.90;82.50;;;;;;5109731;28;20026;-78
2021/06/11 01:58:16;;;;;;;1.17;0.82;;;22.90;82.40;;;;;;5111009;28;20095;-77
2021/06/11 02:00:43;;;;;;;1.30;0.80;;;22.90;82.40;;;;;;5110487;28;20104;-81
2021/06/11 02:03:10;;;;;;;0.98;0.68;;;22.90;82.30;;;;;;5114285;28;20035;-80
2021/06/11 02:05:37;;;;;;;1.13;0.68;;;22.80;82.20;;;;;;5113798;28;20112;-80
2021/06/11 02:08:04;;;;;;;0.93;0.63;;;22.80;82.10;;;;;;5114447;28;20030;-79
2021/06/11 02:10:31;;;;;;;2.08;0.95;;;22.80;82.10;;;;;;5114993;28;20110;-80
2021/06/11 02:12:57;;;;;;;0.90;0.50;;;22.80;82.00;;;;;;5114904;28;20030;-80
2021/06/11 02:15:26;;;;;;;0.98;0.60;;;22.80;81.90;;;;;;5114580;28;20051;-81
2021/06/11 02:17:52;;;;;;;1.60;0.70;;;22.80;81.70;;;;;;5112488;28;20391;-79
2021/06/11 02:20:21;;;;;;;0.95;0.68;;;22.80;81.90;;;;;;5114615;28;20027;-81
2021/06/11 02:22:47;;;;;;;0.55;0.50;;;22.80;81.70;;;;;;5114273;28;20023;-80
2021/06/11 02:25:15;;;;;;;1.80;0.57;;;22.80;81.70;;;;;;5114463;28;20031;-80
2021/06/11 02:27:42;;;;;;;1.23;0.70;;;22.80;81.60;;;;;;5114164;28;20387;-79
2021/06/11 02:30:13;;;;;;;1.00;0.80;;;22.80;81.50;;;;;;5114383;28;20027;-79
2021/06/11 02:32:40;;;;;;;1.30;0.80;;;22.80;81.50;;;;;;5112060;28;20050;-80
2021/06/11 02:35:08;;;;;;;1.00;0.57;;;22.80;81.50;;;;;;5113801;28;20689;-81
2021/06/11 02:37:34;;;;;;;1.33;0.85;;;22.80;81.40;;;;;;5112753;28;20063;-81
2021/06/11 02:40:01;;;;;;;1.48;0.60;;;22.80;81.20;;;;;;5114059;28;20023;-81
2021/06/11 02:42:28;;;;;;;0.80;0.60;;;22.80;81.30;;;;;;5114391;28;20388;-81
2021/06/11 02:44:57;;;;;;;1.00;0.70;;;22.70;81.20;;;;;;5113683;28;20026;-81
2021/06/11 02:47:46;;;;;;;1.10;0.63;;;22.70;81.20;;;;;;5113709;28;20039;-81
2021/06/11 02:50:19;;;;;;;0.52;0.45;;;22.70;81.20;;;;;;5098014;28;20042;-80
2021/06/11 02:52:47;;;;;;;1.73;0.60;;;22.70;81.10;;;;;;5113681;28;20040;-81
2021/06/11 02:55:17;;;;;;;0.77;0.57;;;22.70;81.10;;;;;;5113511;28;20106;-81
2021/06/11 02:57:52;;;;;;;1.38;0.65;;;22.70;81.10;;;;;;5112064;28;20034;-78
2021/06/11 03:00:20;;;;;;;1.30;0.60;;;22.70;81.10;;;;;;5113597;28;20098;-82
2021/06/11 03:03:06;;;;;;;1.00;0.60;;;22.70;80.90;;;;;;5112059;28;20114;-82
2021/06/11 03:05:33;;;;;;;0.98;0.75;;;22.70;80.90;;;;;;5113329;28;20467;-81
2021/06/11 03:08:00;;;;;;;1.55;0.80;;;22.70;80.90;;;;;;5113683;28;20038;-78
2021/06/11 03:10:31;;;;;;;1.10;0.73;;;22.70;80.80;;;;;;5112480;28;20440;-78
2021/06/11 03:12:59;;;;;;;1.02;0.70;;;22.70;80.70;;;;;;5113391;28;20421;-81
2021/06/11 03:15:26;;;;;;;1.00;0.70;;;22.70;80.60;;;;;;5113311;28;20487;-81
2021/06/11 03:17:56;;;;;;;0.70;0.60;;;22.70;80.60;;;;;;5111814;28;20160;-82
2021/06/11 03:20:29;;;;;;;1.20;0.60;;;22.70;80.60;;;;;;5113221;28;20391;-82
2021/06/11 03:23:04;;;;;;;0.73;0.60;;;22.60;80.40;;;;;;5112939;28;20093;-80
2021/06/11 03:25:44;;;;;;;0.68;0.50;;;22.60;80.30;;;;;;5113612;28;20020;-82
2021/06/11 03:28:15;;;;;;;0.90;0.55;;;22.60;80.40;;;;;;5113205;28;20031;-81
2021/06/11 03:31:02;;;;;;;1.35;0.60;;;22.60;80.30;;;;;;5111309;28;20024;-80
2021/06/11 03:33:35;;;;;;;2.55;0.68;;;22.60;80.30;;;;;;5111954;28;20043;-83
2021/06/11 03:36:17;;;;;;;1.25;0.80;;;22.60;80.30;;;;;;5112979;28;20028;-77
2021/06/11 03:38:46;;;;;;;1.08;0.52;;;22.60;80.20;;;;;;5112604;28;20035;-81
2021/06/11 03:41:13;;;;;;;1.10;0.65;;;22.60;80.20;;;;;;5111615;28;20427;-81
2021/06/11 03:43:40;;;;;;;1.45;0.70;;;22.60;80.10;;;;;;5111483;28;20027;-82
2021/06/11 03:46:06;;;;;;;1.17;0.70;;;22.60;80.10;;;;;;5112733;28;20063;-84
2021/06/11 03:48:34;;;;;;;0.90;0.60;;;22.60;80.10;;;;;;5112440;28;20024;-82
2021/06/11 03:51:02;;;;;;;1.48;0.63;;;22.60;80.10;;;;;;5113087;28;20019;-80
2021/06/11 03:53:29;;;;;;;1.98;0.70;;;22.60;80.00;;;;;;5112224;28;20046;-82
2021/06/11 03:56:00;;;;;;;1.08;0.60;;;22.50;79.80;;;;;;5112316;28;20132;-84
2021/06/11 03:58:48;;;;;;;0.68;0.65;;;22.50;79.80;;;;;;5112657;28;20027;-82
2021/06/11 04:01:24;;;;;;;1.42;0.90;;;22.60;79.90;;;;;;5111337;28;20036;-78
2021/06/11 04:03:50;;;;;;;;;;;22.50;79.80;;;;;;5112646;28;20031;-81
2021/06/11 04:06:16;;;;;;;;;;;22.50;79.80;;;;;;5112715;28;20367;-81
2021/06/11 04:08:42;;;;;;;1.23;0.68;;;22.50;79.80;;;;;;5112167;28;19904;-83
2021/06/11 04:11:16;;;;;;;1.60;0.70;;;22.50;79.80;;;;;;5112378;28;20020;-77
2021/06/11 04:13:54;;;;;;;0.85;0.70;;;22.50;79.80;;;;;;5111956;28;20487;-80
2021/06/11 04:16:25;;;;;;;1.48;0.70;;;22.50;79.80;;;;;;5110832;28;20031;-82
2021/06/11 04:18:54;;;;;;;2.33;0.60;;;22.50;79.70;;;;;;5111793;28;20020;-81
2021/06/11 04:21:24;;;;;;;1.20;0.70;;;22.50;79.60;;;;;;5112045;28;20027;-82
2021/06/11 04:23:56;;;;;;;1.85;0.60;;;22.40;79.50;;;;;;5110482;28;20092;-81
2021/06/11 04:26:26;;;;;;;2.10;1.25;;;22.40;79.60;;;;;;5111929;28;20020;-81
2021/06/11 04:28:54;;;;;;;1.50;0.90;;;22.50;79.60;;;;;;5111818;28;20084;-82
2021/06/11 04:31:20;;;;;;;2.60;1.10;;;22.50;79.60;;;;;;5110035;28;20076;-85
2021/06/11 04:33:46;;;;;;;1.75;0.77;;;22.40;79.50;;;;;;5111508;28;20040;-86
2021/06/11 04:36:12;;;;;;;2.25;1.05;;;22.40;79.50;;;;;;5111891;28;20536;-84
2021/06/11 04:38:58;;;;;;;2.50;1.20;;;22.40;79.40;;;;;;5111094;28;20036;-85
2021/06/11 04:41:26;;;;;;;2.35;1.20;;;22.40;79.40;;;;;;5111604;28;20495;-82
2021/06/11 04:43:52;;;;;;;2.67;1.50;;;22.40;79.40;;;;;;5111231;28;20023;-85
2021/06/11 04:46:18;;;;;;;2.28;1.30;;;22.40;79.40;;;;;;5111636;28;20030;-83
2021/06/11 04:48:43;;;;;;;3.60;1.58;;;22.40;79.40;;;;;;5111626;28;20429;-84
2021/06/11 04:51:09;;;;;;;3.03;1.63;;;22.40;79.40;;;;;;5111492;28;20069;-82
2021/06/11 04:53:35;;;;;;;2.80;1.85;;;22.40;79.40;;;;;;5111374;28;20082;-84
2021/06/11 04:56:00;;;;;;;2.88;1.70;;;22.40;79.40;;;;;;5112002;28;20022;-81
2021/06/11 04:58:28;;;;;;;4.18;2.25;;;22.40;79.40;;;;;;5111768;28;20031;-86
2021/06/11 05:00:54;;;;;;;3.30;1.80;;;22.40;79.30;;;;;;5110795;28;20119;-79
2021/06/11 05:03:19;;;;;;;3.80;1.75;;;22.40;79.40;;;;;;5111563;28;20447;-79
2021/06/11 05:05:45;;;;;;;4.20;2.38;;;22.40;79.30;;;;;;5111357;28;20468;-79
2021/06/11 05:08:10;;;;;;;4.25;1.98;;;22.40;79.50;;;;;;5111574;28;20483;-78
2021/06/11 05:10:38;;;;;;;3.92;1.90;;;22.30;79.30;;;;;;5111246;28;20051;-77
2021/06/11 05:13:04;;;;;;;5.00;1.98;;;22.40;79.40;;;;;;5110125;28;20483;-79
2021/06/11 05:15:29;;;;;;;3.97;2.20;;;22.30;79.30;;;;;;5110688;28;20061;-78
2021/06/11 05:18:02;;;;;;;5.03;2.42;;;22.40;79.30;;;;;;5111216;28;20055;-85
2021/06/11 05:20:28;;;;;;;3.95;2.38;;;22.30;79.30;;;;;;5110285;28;20402;-85
2021/06/11 05:22:54;;;;;;;3.00;1.73;;;22.30;79.20;;;;;;5111095;28;20034;-85
2021/06/11 05:25:19;;;;;;;4.18;2.72;;;22.30;79.20;;;;;;5111329;28;20375;-85
2021/06/11 05:27:45;;;;;;;3.60;2.22;;;22.30;79.20;;;;;;5111023;28;20032;-83
2021/06/11 05:30:11;;;;;;;4.70;2.60;;;22.30;79.30;;;;;;5109572;28;20024;-81
2021/06/11 05:32:37;;;;;;;4.28;2.20;;;22.30;79.20;;;;;;5110852;28;20035;-86
2021/06/11 05:35:03;;;;;;;4.25;2.30;;;22.30;79.20;;;;;;5111291;28;20015;-86
2021/06/11 05:37:28;;;;;;;4.05;2.45;;;22.30;80.00;;;;;;5113806;28;20059;-88
2021/06/11 05:39:54;;;;;;;4.47;2.22;;;22.30;79.30;;;;;;5115015;28;20067;-85
2021/06/11 05:42:20;;;;;;;3.75;1.92;;;22.30;79.30;;;;;;5115104;28;20020;-82
2021/06/11 05:44:45;;;;;;;2.55;1.73;;;22.30;79.30;;;;;;5114034;28;20035;-84
2021/06/11 05:47:11;;;;;;;2.90;1.98;;;22.30;79.30;;;;;;5114181;28;20084;-83
2021/06/11 05:49:37;;;;;;;4.80;2.65;;;22.30;79.30;;;;;;5112854;28;20114;-84
2021/06/11 05:52:02;;;;;;;4.18;2.15;;;22.30;79.30;;;;;;5114804;28;20023;-84
2021/06/11 05:54:28;;;;;;;3.15;2.20;;;22.30;79.40;;;;;;5115306;28;20031;-85
2021/06/11 05:56:56;;;;;;;3.60;2.50;;;22.30;79.40;;;;;;5114667;28;20043;-89
2021/06/11 05:59:22;;;;;;;3.33;2.00;;;22.30;79.50;;;;;;5113491;28;20084;-83
2021/06/11 06:01:48;;;;;;;3.22;1.90;;;22.30;79.50;;;;;;5112668;28;20023;-82
2021/06/11 06:04:13;;;;;;;3.97;2.28;;;22.30;79.50;;;;;;5114692;28;20467;-82
2021/06/11 06:06:39;;;;;;;3.13;2.15;;;22.30;79.40;;;;;;5113181;28;20035;-82
2021/06/11 06:09:05;;;;;;;2.40;1.73;;;22.20;79.70;;;;;;5113292;28;20024;-83
2021/06/11 06:11:30;;;;;;;3.22;1.90;;;22.20;80.20;;;;;;5114877;28;20023;-85
2021/06/11 06:13:56;;;;;;;2.20;1.40;;;22.20;80.20;;;;;;5114961;28;20039;-86
2021/06/11 06:16:21;;;;;;;3.53;1.58;;;22.20;81.10;;;;;;5114169;28;20091;-88
2021/06/11 06:18:47;;;;;;;3.00;1.20;;;22.00;82.20;;;;;;5114223;28;20088;-85
2021/06/11 06:21:13;;;;;;;2.30;1.50;;;21.90;83.10;;;;;;5114427;28;20483;-85
2021/06/11 06:23:39;;;;;;;3.22;1.50;;;21.90;84.10;;;;;;5114110;28;20028;-84
2021/06/11 06:26:05;;;;;;;4.80;1.75;;;21.80;84.70;;;;;;5114470;28;20429;-84
2021/06/11 06:28:31;;;;;;;17.75;14.23;;;21.80;85.10;;;;;;5114676;28;20059;-82
2021/06/11 06:30:56;;;;;;;14.27;9.60;;;21.70;85.40;;;;;;5114373;28;20035;-83
2021/06/11 06:33:22;;;;;;;8.88;7.95;;;21.70;86.00;;;;;;5113393;28;20035;-86
2021/06/11 06:35:48;;;;;;;10.88;8.55;;;21.80;85.60;;;;;;5113843;28;20024;-85
2021/06/11 06:38:14;;;;;;;10.95;7.03;;;21.90;85.60;;;;;;5113608;28;20552;-84
2021/06/11 06:40:40;;;;;;;7.75;5.65;;;21.90;85.10;;;;;;5113728;28;20434;-85
2021/06/11 06:43:06;;;;;;;5.78;4.47;;;21.90;85.80;;;;;;5113522;28;20019;-84
2021/06/11 06:45:32;;;;;;;7.25;3.70;;;21.90;85.40;;;;;;5113674;28;20051;-86
2021/06/11 06:48:00;;;;;;;4.93;3.10;;;22.00;85.10;;;;;;5113858;28;20391;-84
2021/06/11 06:50:25;;;;;;;3.60;2.17;;;21.90;85.10;;;;;;5114120;28;20437;-81
2021/06/11 06:52:55;;;;;;;3.42;2.03;;;22.00;85.40;;;;;;5113493;28;20063;-81
2021/06/11 06:55:22;;;;;;;3.95;1.90;;;22.00;85.20;;;;;;5113184;28;20023;-82
2021/06/11 06:57:49;;;;;;;4.30;1.65;;;22.00;85.40;;;;;;5113366;28;20028;-81
2021/06/11 07:00:15;;;;;;;3.13;1.48;;;22.00;85.50;;;;;;5112862;28;20024;-82
2021/06/11 07:02:41;;;;;;;1.50;1.10;;;22.00;85.40;;;;;;5112258;28;20031;-88
2021/06/11 07:05:07;;;;;;;3.15;1.30;;;22.00;85.70;;;;;;5111105;28;20035;-83
2021/06/11 07:07:33;;;;;;;2.08;1.30;;;22.00;85.80;;;;;;5111700;28;20080;-83
2021/06/11 07:09:59;;;;;;;2.47;0.93;;;21.90;85.70;;;;;;5112690;28;20102;-81
2021/06/11 07:12:26;;;;;;;1.75;1.00;;;21.90;85.80;;;;;;5112677;28;20024;-80
2021/06/11 07:14:53;;;;;;;2.80;1.17;;;21.90;85.50;;;;;;5113016;28;20402;-81
2021/06/11 07:17:19;;;;;;;1.92;0.85;;;21.90;85.90;;;;;;5110328;28;20494;-81
2021/06/11 07:19:45;;;;;;;4.10;1.00;;;21.90;85.50;;;;;;5112924;28;20023;-81
2021/06/11 07:22:10;;;;;;;2.45;0.80;;;22.00;85.30;;;;;;5112813;28;20035;-80
2021/06/11 07:24:38;;;;;;;1.52;0.80;;;22.00;85.20;;;;;;5112988;28;20020;-83
2021/06/11 07:27:05;;;;;;;1.83;0.65;;;22.00;85.10;;;;;;5111382;28;20019;-80
2021/06/11 07:29:31;;;;;;;1.13;0.77;;;22.10;85.30;;;;;;5112839;28;20020;-80
2021/06/11 07:31:56;;;;;;;1.75;0.60;;;22.10;85.60;;;;;;5113049;28;20387;-79
2021/06/11 07:34:22;;;;;;;1.90;0.52;;;22.10;85.10;;;;;;5112991;28;20023;-79
2021/06/11 07:36:48;;;;;;;1.30;0.70;;;22.10;84.80;;;;;;5112624;28;20020;-83
2021/06/11 07:39:13;;;;;;;1.30;0.65;;;22.10;85.40;;;;;;5112420;28;20498;-82
2021/06/11 07:41:39;;;;;;;1.02;0.60;;;22.10;85.10;;;;;;5112642;28;20031;-84
2021/06/11 07:44:05;;;;;;;1.25;0.60;;;22.10;85.20;;;;;;5112813;28;20081;-83
2021/06/11 07:46:36;;;;;;;1.25;0.73;;;22.10;85.10;;;;;;5112972;28;20031;-82
2021/06/11 07:49:04;;;;;;;1.27;0.80;;;22.20;84.70;;;;;;5112741;28;20061;-83
2021/06/11 07:51:30;;;;;;;2.47;0.50;;;22.20;84.90;;;;;;5112894;28;20031;-83
2021/06/11 07:53:55;;;;;;;1.45;0.40;;;22.20;85.00;;;;;;5112198;28;20093;-82
2021/06/11 07:56:21;;;;;;;1.30;0.85;;;22.20;85.30;;;;;;5112568;28;20027;-83
2021/06/11 07:58:46;;;;;;;3.10;0.57;;;22.20;85.10;;;;;;5110553;28;20028;-84
2021/06/11 08:01:12;;;;;;;1.65;0.45;;;22.20;84.70;;;;;;5110657;28;20048;-83
2021/06/11 08:03:38;;;;;;;1.80;0.60;;;22.30;84.70;;;;;;5111560;28;20165;-83
2021/06/11 08:06:04;;;;;;;1.58;0.70;;;22.30;84.40;;;;;;5111979;28;20034;-83
2021/06/11 08:08:30;;;;;;;0.60;0.40;;;22.30;84.40;;;;;;5112646;28;20058;-83
2021/06/11 08:10:56;;;;;;;1.38;0.60;;;22.30;84.20;;;;;;5112364;28;20102;-83
2021/06/11 08:13:21;;;;;;;0.90;0.52;;;22.30;84.40;;;;;;5111787;28;20161;-83
2021/06/11 08:15:47;;;;;;;2.22;0.60;;;22.30;84.60;;;;;;5111918;28;20051;-83
2021/06/11 08:18:13;;;;;;;2.00;0.70;;;22.30;84.60;;;;;;5112162;28;20031;-82
2021/06/11 08:20:39;;;;;;;1.25;0.60;;;22.40;84.40;;;;;;5111975;28;20491;-82
2021/06/11 08:23:05;;;;;;;3.38;0.80;;;22.40;84.40;;;;;;5112124;28;20020;-83
2021/06/11 08:25:32;;;;;;;4.05;1.10;;;22.40;84.30;;;;;;5111918;28;20494;-80
2021/06/11 08:27:58;;;;;;;0.75;0.60;;;22.40;84.80;;;;;;5112281;28;20039;-82
2021/06/11 08:30:24;;;;;;;2.05;0.60;;;22.40;84.50;;;;;;5111476;28;20022;-82
2021/06/11 08:32:51;;;;;;;0.95;0.50;;;22.40;84.40;;;;;;5111581;28;20456;-83
2021/06/11 08:35:18;;;;;;;2.15;0.50;;;22.40;84.30;;;;;;5111445;28;20016;-82
2021/06/11 08:37:43;;;;;;;2.17;0.68;;;22.50;84.30;;;;;;5110234;28;20027;-82
2021/06/11 08:40:10;;;;;;;0.60;0.50;;;22.50;83.90;;;;;;5111892;28;20567;-83
2021/06/11 08:42:36;;;;;;;3.53;0.90;;;22.50;84.10;;;;;;5110188;28;20028;-82
2021/06/11 08:45:09;;;;;;;2.83;0.60;;;22.50;84.30;;;;;;5111813;28;20553;-82
2021/06/11 08:47:37;;;;;;;1.40;0.70;;;22.60;84.10;;;;;;5111437;28;20031;-85
2021/06/11 08:50:03;;;;;;;0.93;0.60;;;22.60;84.10;;;;;;5111738;28;20024;-83
2021/06/11 08:52:29;;;;;;;0.70;0.60;;;22.60;84.40;;;;;;5111971;28;20080;-82
2021/06/11 08:54:56;;;;;;;1.23;0.60;;;22.60;84.30;;;;;;5110979;28;20439;-83
2021/06/11 08:57:23;;;;;;;2.03;0.60;;;22.60;84.30;;;;;;5111282;28;20069;-81
2021/06/11 08:59:49;;;;;;;2.45;0.50;;;22.60;84.30;;;;;;5110921;28;20035;-79
2021/06/11 09:02:15;;;;;;;2.13;0.60;;;22.60;84.00;;;;;;5111411;28;20098;-80
2021/06/11 09:04:46;;;;;;;0.93;0.50;;;22.60;84.90;;;;;;5111292;28;20095;-80
2021/06/11 09:07:28;;;;;;;0.90;0.50;;;22.60;84.50;;;;;;5111454;28;20375;-79
2021/06/11 09:10:06;;;;;;;0.90;0.60;;;22.60;84.60;;;;;;5111284;28;20070;-79
2021/06/11 09:12:40;;;;;;;1.40;0.65;;;22.60;85.00;;;;;;5115641;28;20035;-80
2021/06/11 09:15:19;;;;;;;1.38;0.70;;;22.70;85.10;;;;;;5115762;28;20020;-81
2021/06/11 09:17:49;;;;;;;3.17;0.80;;;22.60;85.90;;;;;;5115466;28;20024;-81
2021/06/11 09:20:20;;;;;;;0.93;0.60;;;22.70;85.00;;;;;;5114473;28;20028;-81
2021/06/11 09:22:54;;;;;;;1.73;0.73;;;22.70;84.80;;;;;;5114045;28;20027;-82
2021/06/11 09:25:31;;;;;;;1.42;0.70;;;22.70;84.60;;;;;;5115494;28;20024;-81
2021/06/11 09:28:14;;;;;;;1.60;0.80;;;22.80;84.50;;;;;;5114466;28;20028;-81
2021/06/11 09:30:40;;;;;;;1.60;0.60;;;22.80;84.40;;;;;;5114396;28;20051;-80
2021/06/11 09:33:12;;;;;;;1.15;0.70;;;22.80;84.40;;;;;;5114498;28;20040;-80
2021/06/11 09:35:45;;;;;;;0.73;0.70;;;22.80;84.00;;;;;;5113731;28;20127;-80
2021/06/11 09:38:14;;;;;;;1.90;0.82;;;22.80;83.90;;;;;;5114798;28;20388;-81
2021/06/11 09:41:04;;;;;;;1.30;0.63;;;22.80;83.70;;;;;;5114896;28;20098;-79
2021/06/11 09:43:32;;;;;;;1.92;0.98;;;22.80;84.30;;;;;;5115442;28;20032;-80
2021/06/11 09:46:13;;;;;;;1.77;0.70;;;22.90;83.40;;;;;;5115256;28;20084;-79
2021/06/11 09:48:40;;;;;;;1.58;0.73;;;22.90;83.20;;;;;;5114986;28;20031;-80
2021/06/11 09:51:14;;;;;;;1.67;0.65;;;22.90;83.20;;;;;;5114990;28;20593;-80
2021/06/11 09:53:39;;;;;;;1.20;0.70;;;22.90;83.00;;;;;;5114316;28;20066;-78
2021/06/11 09:56:05;;;;;;;1.73;0.70;;;22.90;82.90;;;;;;5114956;28;20115;-79
2021/06/11 09:58:37;;;;;;;1.23;0.60;;;22.90;82.90;;;;;;5113280;28;20172;-83
2021/06/11 10:01:12;;;;;;;2.03;0.60;;;23.00;82.90;;;;;;5115708;28;20100;-92
2021/06/11 10:03:48;;;;;;;1.52;0.88;;;22.90;82.80;;;;;;5115560;28;20031;-89
2021/06/11 10:06:16;;;;;;;1.70;0.70;;;22.90;82.60;;;;;;5115108;28;20104;-81
2021/06/11 10:08:46;;;;;;;1.73;0.70;;;23.00;82.70;;;;;;5114427;28;20020;-85
2021/06/11 10:11:14;;;;;;;2.38;0.88;;;23.00;82.70;;;;;;5114719;28;20110;-79
2021/06/11 10:13:40;;;;;;;1.80;0.80;;;23.00;82.70;;;;;;5114440;27;20051;-81
2021/06/11 10:16:08;;;;;;;5.60;0.75;;;23.00;82.70;;;;;;5112851;28;20020;-81
2021/06/11 10:18:34;;;;;;;1.55;1.00;;;23.00;82.50;;;;;;5111221;28;20051;-82
2021/06/11 10:21:01;;;;;;;1.48;0.70;;;23.00;82.40;;;;;;5113558;28;20463;-81
2021/06/11 10:23:28;;;;;;;2.28;0.90;;;23.00;82.30;;;;;;5113518;28;20434;-81
2021/06/11 10:25:56;;;;;;;1.40;0.70;;;23.00;82.00;;;;;;5114096;28;20084;-82
2021/06/11 10:28:43;;;;;;;1.42;0.70;;;23.10;82.20;;;;;;5114208;28;20051;-81
2021/06/11 10:31:17;;;;;;;2.65;0.70;;;23.10;82.00;;;;;;5094045;28;20061;-82
2021/06/11 10:33:51;;;;;;;2.90;0.77;;;23.10;82.10;;;;;;5109232;28;20043;-82
2021/06/11 10:36:47;;;;;;;1.55;0.70;;;23.10;82.00;;;;;;5093841;28;20080;-82
2021/06/11 10:39:15;;;;;;;1.40;0.68;;;23.10;82.00;;;;;;5111849;28;20028;-81
2021/06/11 10:42:00;;;;;;;1.58;0.80;;;23.10;81.90;;;;;;5105488;28;20360;-80
2021/06/11 10:44:46;;;;;;;2.03;0.70;;;23.10;81.90;;;;;;5112800;28;20052;-82
2021/06/11 10:47:15;;;;;;;1.38;0.70;;;23.20;81.90;;;;;;5112434;28;20036;-81
2021/06/11 10:49:56;;;;;;;1.45;0.80;;;23.20;82.10;;;;;;5113677;28;20030;-82
2021/06/11 10:52:45;;;;;;;2.08;0.70;;;23.20;82.20;;;;;;5113079;28;20049;-82
2021/06/11 10:55:14;;;;;;;1.73;0.80;;;23.20;82.10;;;;;;5113795;28;20019;-81
2021/06/11 10:58:08;;;;;;;1.10;0.80;;;23.30;82.20;;;;;;5113604;28;20039;-83
2021/06/11 11:00:37;;;;;;;1.83;0.60;;;23.20;82.20;;;;;;5113205;28;20034;-82
2021/06/11 11:03:05;;;;;;;1.20;0.60;;;23.30;82.20;;;;;;5113680;28;20466;-82
2021/06/11 11:05:32;;;;;;;1.83;0.80;;;23.30;82.20;;;;;;5112369;28;20024;-80
2021/06/11 11:07:59;;;;;;;1.75;0.77;;;23.30;82.20;;;;;;5113500;28;20027;-81
2021/06/11 11:10:42;;;;;;;1.45;0.70;;;23.30;82.30;;;;;;5112071;28;20383;-82
2021/06/11 11:13:09;;;;;;;1.50;0.70;;;23.30;82.20;;;;;;5113488;28;20032;-82
2021/06/11 11:15:49;;;;;;;1.30;0.60;;;23.30;82.20;;;;;;5112969;28;20023;-81
2021/06/11 11:18:39;;;;;;;1.15;0.73;;;23.30;82.10;;;;;;5113370;28;20076;-83
2021/06/11 11:21:38;;;;;;;1.40;0.60;;;23.40;82.10;;;;;;5113324;28;20020;-82
2021/06/11 11:24:12;;;;;;;1.75;0.70;;;23.40;82.00;;;;;;5113447;28;20023;-82
2021/06/11 11:26:50;;;;;;;1.00;0.60;;;23.40;82.00;;;;;;5111268;28;20028;-82
2021/06/11 11:29:17;;;;;;;2.70;0.75;;;23.40;82.00;;;;;;5112777;28;20020;-83
2021/06/11 11:31:45;;;;;;;2.15;0.65;;;23.50;82.00;;;;;;5111440;28;20433;-82
2021/06/11 11:34:11;;;;;;;3.00;0.82;;;23.50;82.00;;;;;;5111930;28;20040;-83
2021/06/11 11:36:37;;;;;;;2.45;0.93;;;23.50;82.00;;;;;;5110827;28;20012;-82
2021/06/11 11:39:06;;;;;;;1.45;0.77;;;23.50;82.00;;;;;;5112851;28;20501;-83
2021/06/11 11:41:31;;;;;;;1.23;0.75;;;23.50;82.10;;;;;;5110712;28;20016;-84
2021/06/11 11:43:57;;;;;;;3.10;0.90;;;23.50;81.80;;;;;;5112310;28;20031;-89
2021/06/11 11:46:23;;;;;;;1.73;0.75;;;23.60;81.80;;;;;;5112551;28;20042;-81
2021/06/11 11:48:48;;;;;;;2.58;0.90;;;23.60;81.80;;;;;;5111787;28;20114;-85
2021/06/11 11:51:14;;;;;;;2.50;0.70;;;23.60;81.80;;;;;;5108683;28;20047;-84
2021/06/11 11:53:40;;;;;;;1.90;1.08;;;23.60;81.80;;;;;;5112432;28;20449;-81
2021/06/11 11:56:07;;;;;;;2.78;0.93;;;23.60;81.60;;;;;;5111581;28;20023;-85
2021/06/11 11:58:32;;;;;;;2.05;0.85;;;23.70;81.70;;;;;;5110323;28;20540;-83
2021/06/11 12:00:58;;;;;;;3.42;1.00;;;23.70;81.70;;;;;;5111312;28;20027;-86
2021/06/11 12:03:24;;;;;;;2.25;0.60;;;23.70;82.00;;;;;;5110839;28;20031;-89
2021/06/11 12:05:49;;;;;;;1.77;0.75;;;23.80;82.00;;;;;;5111698;28;20020;-86
2021/06/11 12:08:15;;;;;;;1.75;0.85;;;23.80;81.80;;;;;;5110240;28;20028;-84
2021/06/11 12:10:41;;;;;;;1.13;1.00;;;23.80;82.00;;;;;;5111623;28;20080;-83
2021/06/11 12:13:06;;;;;;;0.90;0.50;;;23.80;82.20;;;;;;5111891;28;20549;-84
2021/06/11 12:15:32;;;;;;;1.98;0.90;;;23.80;82.50;;;;;;5110202;28;20114;-87
2021/06/11 12:17:58;;;;;;;1.55;0.80;;;23.90;82.90;;;;;;5112905;28;20463;-89
2021/06/11 12:20:29;;;;;;;2.72;0.88;;;23.90;83.20;;;;;;5113394;28;20027;-87
2021/06/11 12:22:55;;;;;;;1.42;0.80;;;23.90;84.40;;;;;;5109506;28;20022;-83
2021/06/11 12:25:21;;;;;;;0.90;0.60;;;24.00;84.80;;;;;;5110418;28;20051;-81
2021/06/11 12:27:46;;;;;;;2.08;0.98;;;24.00;85.00;;;;;;5111154;28;20019;-84
2021/06/11 12:30:12;;;;;;;2.28;0.73;;;24.00;84.50;;;;;;5112156;28;20160;-83
2021/06/11 12:32:38;;;;;;;3.28;0.70;;;24.10;84.70;;;;;;5111791;28;20035;-82
2021/06/11 12:35:04;;;;;;;1.90;1.00;;;24.10;84.30;;;;;;5111015;28;20020;-80
2021/06/11 12:37:30;;;;;;;2.72;1.00;;;24.20;84.10;;;;;;5110907;28;20031;-82
2021/06/11 12:39:56;;;;;;;2.47;0.93;;;24.20;85.00;;;;;;5111742;28;20483;-85
2021/06/11 12:42:30;;;;;;;2.50;0.70;;;24.20;85.00;;;;;;5111100;28;20480;-84
2021/06/11 12:44:57;;;;;;;1.00;0.60;;;24.30;84.70;;;;;;5111050;28;20122;-87
2021/06/11 12:47:22;;;;;;;2.92;0.80;;;24.30;84.90;;;;;;5110788;28;20035;-82
2021/06/11 12:49:48;;;;;;;2.78;0.77;;;24.30;85.30;;;;;;5111449;28;20031;-83
2021/06/11 12:52:14;;;;;;;4.07;0.70;;;24.40;85.30;;;;;;5111369;28;20020;-81
2021/06/11 12:54:39;;;;;;;1.70;0.70;;;24.40;84.80;;;;;;5108984;28;20081;-81